Time;durP1;ratioP1;P1;durP2;ratioP2;P2;SDS_P1;SDS_P2;PMS_P1;PMS_P2;Temp;Humidity;BMP_temperature;BMP_pressure;BME280_temperature;BME280_humidity;BME280_pressure;Samples;Min_cycle;Max_cycle;Signal;HPM_P1;HPM_P2
2021/04/05 00:00:35;;;;;;;32.00;21.08;;;;;;;4.61;88.72;100657.88;5029193;28;20398;-80
2021/04/05 00:03:01;;;;;;;30.77;19.63;;;;;;;4.60;89.02;100648.19;5028350;28;20041;-84
2021/04/05 00:05:29;;;;;;;32.80;19.35;;;;;;;4.56;89.31;100630.81;5027489;28;20041;-80
2021/04/05 00:07:55;;;;;;;31.00;19.52;;;;;;;4.55;89.03;100633.63;5022450;28;20083;-83
2021/04/05 00:10:27;;;;;;;32.45;19.73;;;;;;;4.55;89.36;100617.69;5023780;28;20494;-81
2021/04/05 00:12:55;;;;;;;33.20;20.13;;;;;;;4.52;89.59;100618.78;5030550;28;20382;-77
2021/04/05 00:15:21;;;;;;;34.40;22.25;;;;;;;4.56;89.27;100609.56;5022822;28;20076;-83
2021/04/05 00:17:47;;;;;;;35.63;20.83;;;;;;;4.52;89.14;100601.03;5038739;28;20080;-79
2021/04/05 00:20:20;;;;;;;33.70;20.63;;;;;;;4.52;89.29;100610.81;5030303;28;20124;-82
2021/04/05 00:22:46;;;;;;;37.70;21.05;;;;;;;4.51;89.17;100607.28;5025221;28;20038;-79
2021/04/05 00:25:12;;;;;;;36.15;19.33;;;;;;;4.51;89.06;100601.97;5023592;28;20476;-87
2021/04/05 00:27:38;;;;;;;38.35;22.45;;;;;;;4.49;89.52;100603.09;5029228;28;20045;-79
2021/04/05 00:30:09;;;;;;;32.67;19.88;;;;;;;4.50;89.29;100604.78;5030393;28;20478;-84
2021/04/05 00:32:35;;;;;;;38.60;22.15;;;;;;;4.52;89.24;100597.53;5029426;28;20482;-80
2021/04/05 00:35:04;;;;;;;37.78;23.80;;;;;;;4.51;89.15;100586.03;5022162;28;20042;-85
2021/04/05 00:37:29;;;;;;;37.13;22.55;;;;;;;4.49;89.22;100581.84;5030280;28;20041;-84
2021/04/05 00:39:54;;;;;;;39.00;20.80;;;;;;;4.46;89.61;100560.81;5025884;28;20057;-81
2021/04/05 00:42:20;;;;;;;41.45;22.33;;;;;;;4.49;89.15;100556.09;5012453;28;20061;-79
2021/04/05 00:44:46;;;;;;;38.13;22.45;;;;;;;4.47;89.25;100547.41;5017245;28;20037;-83
2021/04/05 00:47:12;;;;;;;32.78;20.25;;;;;;;4.48;89.32;100553.56;5022478;28;20062;-82
2021/04/05 00:49:38;;;;;;;37.85;24.35;;;;;;;4.51;88.90;100548.00;5021626;28;20053;-84
2021/04/05 00:52:04;;;;;;;38.03;22.08;;;;;;;4.46;89.36;100531.59;5040757;28;20061;-81
2021/04/05 00:54:30;;;;;;;33.72;21.40;;;;;;;4.50;89.11;100517.09;5026338;28;20045;-84
2021/04/05 00:56:56;;;;;;;38.80;22.55;;;;;;;4.49;89.15;100518.06;5024868;28;20516;-83
2021/04/05 00:59:22;;;;;;;41.17;23.65;;;;;;;4.46;89.49;100507.66;5024817;28;20053;-79
2021/04/05 01:01:49;;;;;;;40.08;24.45;;;;;;;4.47;89.56;100498.75;5025756;28;20520;-81
2021/04/05 01:04:15;;;;;;;37.78;20.95;;;;;;;4.44;89.64;100505.16;5022143;28;20048;-82
2021/04/05 01:06:42;;;;;;;37.53;21.67;;;;;;;4.45;89.61;100500.69;5019411;28;20505;-79
2021/04/05 01:09:10;;;;;;;39.42;21.67;;;;;;;4.46;89.54;100491.72;5003635;28;20041;-80
2021/04/05 01:11:35;;;;;;;42.95;24.83;;;;;;;4.47;89.58;100493.44;5018990;28;20056;-84
2021/04/05 01:14:06;;;;;;;45.80;24.73;;;;;;;4.44;89.89;100493.69;5024341;28;20041;-77
2021/04/05 01:16:32;;;;;;;44.70;23.33;;;;;;;4.44;89.51;100473.28;5040691;28;20401;-81
2021/04/05 01:18:59;;;;;;;40.50;22.55;;;;;;;4.45;89.32;100460.81;5020844;28;20474;-82
2021/04/05 01:21:25;;;;;;;40.97;24.25;;;;;;;4.44;89.75;100461.81;5022912;28;20103;-81
2021/04/05 01:23:51;;;;;;;41.85;24.85;;;;;;;4.42;89.97;100461.09;5024928;28;20127;-83
2021/04/05 01:26:17;;;;;;;41.92;25.02;;;;;;;4.44;89.41;100459.16;5025494;28;20037;-77
2021/04/05 01:28:43;;;;;;;37.00;21.02;;;;;;;4.40;89.97;100455.94;5024495;28;20049;-83
2021/04/05 01:31:09;;;;;;;43.45;23.98;;;;;;;4.40;90.16;100453.28;5020144;28;20076;-81
2021/04/05 01:33:39;;;;;;;43.17;25.70;;;;;;;4.44;89.80;100446.72;5025756;28;20498;-77
2021/04/05 01:36:13;;;;;;;41.50;23.85;;;;;;;4.44;89.91;100445.88;5024259;28;20495;-80
2021/04/05 01:38:40;;;;;;;41.00;22.25;;;;;;;4.44;90.07;100430.75;5023043;28;20049;-85
2021/04/05 01:41:15;;;;;;;41.45;22.67;;;;;;;4.43;90.17;100434.41;5022115;28;20034;-87
2021/04/05 01:43:41;;;;;;;40.70;25.05;;;;;;;4.43;90.11;100401.66;5006594;28;20073;-83
2021/04/05 01:46:09;;;;;;;43.38;24.40;;;;;;;4.46;90.01;100412.00;5022680;28;20072;-83
2021/04/05 01:48:35;;;;;;;39.42;22.08;;;;;;;4.47;89.84;100387.16;5023013;28;20068;-85
2021/04/05 01:51:14;;;;;;;41.38;22.63;;;;;;;4.47;90.08;100389.81;5006979;28;20050;-79
2021/04/05 01:53:42;;;;;;;40.97;23.33;;;;;;;4.48;90.32;100380.84;5018969;28;20449;-85
2021/04/05 01:56:10;;;;;;;46.88;22.25;;;;;;;4.49;90.51;100379.88;5023881;28;20041;-81
2021/04/05 01:58:37;;;;;;;44.92;23.58;;;;;;;4.50;90.60;100369.13;5018852;28;20053;-84
2021/04/05 02:01:15;;;;;;;42.22;24.35;;;;;;;4.55;90.04;100349.28;5023223;28;20069;-82
2021/04/05 02:03:42;;;;;;;40.47;21.88;;;;;;;4.57;90.18;100365.91;5025940;28;20124;-79
2021/04/05 02:06:21;;;;;;;37.63;20.77;;;;;;;4.60;90.20;100366.47;5039875;28;20041;-81
2021/04/05 02:08:47;;;;;;;35.05;20.30;;;;;;;4.63;90.04;100354.72;5022135;28;20037;-84
2021/04/05 02:11:15;;;;;;;35.80;21.23;;;;;;;4.68;89.78;100356.00;5005909;28;20123;-82
2021/04/05 02:13:44;;;;;;;40.67;23.45;;;;;;;4.73;89.64;100353.78;5019276;28;20040;-81
2021/04/05 02:16:16;;;;;;;44.97;20.70;;;;;;;4.76;89.77;100334.06;5006780;28;20045;-80
2021/04/05 02:18:43;;;;;;;38.28;21.05;;;;;;;4.79;89.61;100335.59;5039692;28;20079;-79
2021/04/05 02:21:12;;;;;;;33.33;21.33;;;;;;;4.83;89.77;100337.00;5006138;28;20042;-77
2021/04/05 02:23:39;;;;;;;36.15;19.88;;;;;;;4.86;89.47;100320.75;5003430;28;20057;-78
2021/04/05 02:26:08;;;;;;;35.92;19.60;;;;;;;4.88;89.61;100332.94;5023864;28;20041;-85
2021/04/05 02:28:44;;;;;;;33.83;19.52;;;;;;;4.93;89.84;100324.56;5023791;28;20042;-79
2021/04/05 02:31:15;;;;;;;40.72;22.58;;;;;;;4.96;89.64;100321.63;5020474;28;20473;-81
2021/04/05 02:33:43;;;;;;;36.60;21.25;;;;;;;5.00;89.23;100325.66;5037421;28;20048;-81
2021/04/05 02:36:14;;;;;;;42.60;20.43;;;;;;;5.02;89.57;100313.09;5034529;28;20049;-82
2021/04/05 02:38:46;;;;;;;36.97;20.27;;;;;;;5.07;89.48;100294.88;5025620;28;20283;-79
2021/04/05 02:41:13;;;;;;;35.80;17.65;;;;;;;5.08;89.91;100296.56;5012376;28;20440;-83
2021/04/05 02:43:41;;;;;;;34.35;19.35;;;;;;;5.11;89.70;100264.34;5028087;28;20045;-82
2021/04/05 02:46:12;;;;;;;39.25;21.23;;;;;;;5.18;89.33;100269.97;5026373;28;20046;-76
2021/04/05 02:48:42;;;;;;;34.05;18.55;;;;;;;5.20;89.17;100278.63;5025535;28;20112;-80
2021/04/05 02:51:10;;;;;;;36.63;20.17;;;;;;;5.23;89.55;100258.88;5024183;28;20046;-85
2021/04/05 02:53:40;;;;;;;36.22;18.05;;;;;;;5.25;89.73;100251.63;5024979;28;20041;-82
2021/04/05 02:56:08;;;;;;;34.50;19.52;;;;;;;5.29;89.34;100250.34;5027385;28;20106;-81
2021/04/05 02:58:38;;;;;;;42.67;20.05;;;;;;;5.31;89.34;100248.38;5029450;28;20037;-82
2021/04/05 03:01:06;;;;;;;42.95;20.45;;;;;;;5.33;89.44;100233.94;5025937;28;20068;-81
2021/04/05 03:03:34;;;;;;;38.15;18.55;;;;;;;5.38;90.12;100242.34;5023885;28;20557;-81
2021/04/05 03:06:00;;;;;;;37.33;18.65;;;;;;;5.41;90.41;100233.25;5023651;28;20049;-75
2021/04/05 03:08:30;;;;;;;37.63;18.65;;;;;;;5.42;90.66;100237.56;5025537;28;20045;-83
2021/04/05 03:10:57;;;;;;;43.63;20.23;;;;;;;5.46;90.26;100228.28;5024388;28;20140;-88
2021/04/05 03:13:30;;;;;;;39.28;22.60;;;;;;;5.48;90.35;100207.72;5030485;28;20095;-81
2021/04/05 03:15:57;;;;;;;44.97;20.63;;;;;;;5.49;90.34;100201.38;5045324;28;20393;-85
2021/04/05 03:18:26;;;;;;;37.80;20.60;;;;;;;5.53;90.25;100188.66;5029660;28;20448;-84
2021/04/05 03:20:53;;;;;;;43.63;21.80;;;;;;;5.53;90.70;100197.47;5025708;28;20048;-80
2021/04/05 03:23:22;;;;;;;44.20;20.52;;;;;;;5.57;90.70;100174.06;5026294;28;20033;-82
2021/04/05 03:25:48;;;;;;;41.17;22.20;;;;;;;5.57;90.68;100176.72;5027659;28;20124;-84
2021/04/05 03:28:19;;;;;;;36.88;19.92;;;;;;;5.57;91.42;100160.75;5026986;28;20044;-81
2021/04/05 03:30:49;;;;;;;38.63;20.55;;;;;;;5.61;91.22;100159.44;5026173;28;20073;-82
2021/04/05 03:33:21;;;;;;;45.25;20.95;;;;;;;5.63;91.36;100155.66;5026321;28;20053;-81
2021/04/05 03:35:54;;;;;;;41.90;20.25;;;;;;;5.63;91.27;100163.66;5028441;28;20091;-79
2021/04/05 03:38:20;;;;;;;41.50;20.92;;;;;;;5.66;91.62;100158.03;5044009;28;20045;-80
2021/04/05 03:40:48;;;;;;;41.42;21.35;;;;;;;5.68;91.63;100147.25;5014737;28;20042;-80
2021/04/05 03:43:23;;;;;;;41.40;19.92;;;;;;;5.69;92.05;100138.25;5027493;28;20110;-79
2021/04/05 03:45:51;;;;;;;47.55;22.20;;;;;;;5.73;91.50;100137.00;5028597;28;20124;-79
2021/04/05 03:48:37;;;;;;;41.00;21.98;;;;;;;5.73;92.39;100133.50;5027768;28;20049;-82
2021/04/05 03:51:13;;;;;;;41.17;21.48;;;;;;;5.73;92.52;100121.03;5027020;28;20049;-77
2021/04/05 03:54:00;;;;;;;41.22;22.50;;;;;;;5.74;92.87;100111.19;5028046;28;20041;-85
2021/04/05 03:56:37;;;;;;;39.50;20.40;;;;;;;5.75;93.09;100096.91;5022248;28;20046;-79
2021/04/05 03:59:07;;;;;;;39.92;20.42;;;;;;;5.76;93.30;100107.41;5038867;28;20901;-86
2021/04/05 04:01:38;;;;;;;38.13;20.33;;;;;;;5.78;93.23;100102.78;5024309;28;20108;-84
2021/04/05 04:04:18;;;;;;;46.92;21.40;;;;;;;5.79;93.45;100106.28;5024321;28;20038;-84
2021/04/05 04:07:05;;;;;;;43.33;20.52;;;;;;;5.80;93.63;100099.94;5047361;28;20124;-82
2021/04/05 04:09:33;;;;;;;40.67;19.33;;;;;;;5.80;94.05;100090.13;5013599;28;20055;-83
2021/04/05 04:11:59;;;;;;;41.55;22.25;;;;;;;5.83;93.36;100084.50;5027249;28;20045;-84
2021/04/05 04:14:30;;;;;;;44.90;22.42;;;;;;;5.84;93.76;100080.00;5027458;28;20106;-87
2021/04/05 04:16:58;;;;;;;43.90;22.27;;;;;;;5.86;93.50;100075.38;5023696;28;20068;-80
2021/04/05 04:19:27;;;;;;;46.75;20.63;;;;;;;5.87;93.87;100058.44;5027587;28;20098;-85
2021/04/05 04:21:55;;;;;;;37.70;20.00;;;;;;;5.89;93.91;100064.41;5025313;28;20045;-82
2021/04/05 04:24:20;;;;;;;33.35;19.75;;;;;;;5.91;94.17;100064.28;5028449;28;20350;-79
2021/04/05 04:26:47;;;;;;;44.17;18.45;;;;;;;5.95;93.96;100063.00;5024673;28;20045;-82
2021/04/05 04:29:18;;;;;;;37.88;18.70;;;;;;;5.95;94.29;100063.84;5041136;28;20045;-82
2021/04/05 04:31:44;;;;;;;40.00;20.38;;;;;;;5.97;93.81;100064.53;5039577;28;20079;-77
2021/04/05 04:34:13;;;;;;;39.28;19.88;;;;;;;5.99;93.92;100051.09;5020214;28;20103;-80
2021/04/05 04:36:38;;;;;;;;;;;;;;;6.01;94.09;100049.94;5043741;28;20053;-80
2021/04/05 04:39:05;;;;;;;33.10;17.23;;;;;;;5.92;94.94;100048.13;5026536;28;19963;-84
2021/04/05 04:41:31;;;;;;;36.60;16.13;;;;;;;5.94;95.13;100042.72;5039433;28;20132;-82
2021/04/05 04:43:58;;;;;;;34.05;18.50;;;;;;;5.96;95.47;100035.41;5024851;28;20041;-83
2021/04/05 04:46:25;;;;;;;36.85;18.52;;;;;;;5.93;96.30;100020.56;5025328;28;20045;-85
2021/04/05 04:48:56;;;;;;;38.42;20.42;;;;;;;5.94;96.38;100018.75;5025353;28;20053;-80
2021/04/05 04:51:22;;;;;;;37.83;18.77;;;;;;;5.96;96.47;100030.91;5027812;28;20052;-78
2021/04/05 04:53:48;;;;;;;39.15;16.98;;;;;;;5.96;96.86;100019.44;5025938;28;20041;-81
2021/04/05 04:56:16;;;;;;;40.65;17.52;;;;;;;5.97;97.28;100005.13;5027910;28;20053;-77
2021/04/05 04:58:43;;;;;;;44.53;19.00;;;;;;;5.97;97.31;100016.59;5029827;28;20049;-79
2021/04/05 05:01:11;;;;;;;38.55;17.60;;;;;;;5.96;98.15;100004.28;5027989;28;20065;-78
2021/04/05 05:03:40;;;;;;;43.97;18.38;;;;;;;5.95;98.76;100002.59;5028039;28;20108;-81
2021/04/05 05:06:09;;;;;;;37.90;17.88;;;;;;;5.90;99.67;99988.88;5026772;28;20075;-79
2021/04/05 05:08:35;;;;;;;40.70;18.40;;;;;;;5.91;99.82;99985.22;5039880;28;20501;-80
2021/04/05 05:11:02;;;;;;;41.47;20.02;;;;;;;5.89;100.00;99998.69;5025514;28;20388;-82
2021/04/05 05:13:29;;;;;;;40.65;18.75;;;;;;;5.89;100.00;99982.69;5026782;28;20069;-82
2021/04/05 05:15:54;;;;;;;37.15;19.98;;;;;;;5.87;100.00;99990.03;5024488;28;20040;-79
2021/04/05 05:18:20;;;;;;;50.70;19.23;;;;;;;5.86;100.00;99990.16;5042727;28;20045;-84
2021/04/05 05:20:47;;;;;;;39.78;20.33;;;;;;;5.88;100.00;99980.22;5042097;28;20049;-80
2021/04/05 05:23:17;;;;;;;40.35;20.00;;;;;;;5.90;100.00;99962.25;5025706;28;20061;-79
2021/04/05 05:25:43;;;;;;;38.17;19.00;;;;;;;5.86;100.00;99958.22;5024298;28;20054;-79
2021/04/05 05:28:10;;;;;;;40.53;19.45;;;;;;;5.86;100.00;99961.72;5019041;28;20041;-81
2021/04/05 05:30:36;;;;;;;42.95;19.52;;;;;;;5.85;100.00;99957.38;5040780;28;20045;-86
2021/04/05 05:33:05;;;;;;;48.60;19.77;;;;;;;5.83;100.00;99962.03;5035878;28;20466;-84
2021/04/05 05:35:32;;;;;;;;;;;;;;;5.85;100.00;99953.91;5015913;28;20038;-79
2021/04/05 05:38:05;;;;;;;47.13;20.83;;;;;;;5.80;100.00;99940.19;5021242;28;19968;-83
2021/04/05 05:40:32;;;;;;;43.97;19.60;;;;;;;5.80;100.00;99942.84;5008739;28;20077;-79
2021/04/05 05:43:08;;;;;;;42.53;19.40;;;;;;;5.81;100.00;99937.41;5026744;28;20045;-80
2021/04/05 05:46:00;;;;;;;41.88;21.48;;;;;;;5.85;100.00;99917.44;5027686;28;20037;-83
2021/04/05 05:48:37;;;;;;;41.30;17.58;;;;;;;5.88;100.00;99911.81;5028088;28;20049;-83
2021/04/05 05:51:16;;;;;;;34.60;17.98;;;;;;;5.91;100.00;99912.50;5024335;28;20084;-79
2021/04/05 05:54:04;;;;;;;36.67;19.27;;;;;;;5.95;100.00;99911.22;5021937;28;20073;-79
2021/04/05 05:56:51;;;;;;;37.15;17.73;;;;;;;5.94;100.00;99902.41;5027987;28;20057;-84
2021/04/05 05:59:23;;;;;;;33.63;16.35;;;;;;;5.95;100.00;99914.72;5020929;28;21947;-83
2021/04/05 06:02:14;;;;;;;38.30;18.70;;;;;;;5.98;100.00;99918.88;5024584;28;20676;-86
2021/04/05 06:05:01;;;;;;;33.30;17.80;;;;;;;5.97;100.00;99942.03;5021251;28;20241;-82
2021/04/05 06:08:20;;;;;;;42.38;23.13;;;;;;;5.97;100.00;100027.25;5023954;28;20095;-79
2021/04/05 06:10:57;;;;;;;13.05;5.78;;;;;;;5.42;98.85;100040.66;4989140;28;20042;-84
2021/04/05 06:13:47;;;;;;;6.07;3.47;;;;;;;5.14;99.18;100045.13;5022433;28;20063;-82
2021/04/05 06:16:19;;;;;;;5.82;2.50;;;;;;;4.88;100.00;100055.59;5015425;28;20065;-86
2021/04/05 06:18:59;;;;;;;4.78;2.10;;;;;;;4.70;100.00;100053.69;5024508;28;20049;-84
2021/04/05 06:21:49;;;;;;;5.90;1.40;;;;;;;4.48;100.00;100064.66;5023442;28;20483;-80
2021/04/05 06:24:23;;;;;;;4.95;1.30;;;;;;;4.35;100.00;100062.31;5024452;28;20045;-80
2021/04/05 06:26:51;;;;;;;6.15;1.25;;;;;;;4.25;100.00;100070.28;5025817;28;20037;-81
2021/04/05 06:29:55;;;;;;;3.80;1.38;;;;;;;4.18;100.00;100071.00;5024319;28;20045;-85
2021/04/05 06:32:51;;;;;;;6.30;1.80;;;;;;;4.11;100.00;100093.78;5024987;28;20042;-82
2021/04/05 06:35:43;;;;;;;5.75;1.67;;;;;;;4.06;100.00;100092.38;4993637;28;20067;-77
2021/04/05 06:38:17;;;;;;;7.75;2.78;;;;;;;4.04;100.00;100088.19;5026028;28;20034;-81
2021/04/05 06:40:44;;;;;;;8.43;2.67;;;;;;;4.00;100.00;100089.41;5010990;28;20069;-84
2021/04/05 06:43:30;;;;;;;3.22;1.30;;;;;;;3.92;100.00;100078.69;5010953;28;20099;-82
2021/04/05 06:46:27;;;;;;;5.47;1.38;;;;;;;3.83;100.00;100072.41;5043006;28;20569;-83
2021/04/05 06:49:32;;;;;;;7.35;1.23;;;;;;;3.77;100.00;100081.75;5026972;28;20485;-80
2021/04/05 06:52:10;;;;;;;7.68;1.55;;;;;;;3.72;100.00;100075.16;5022738;28;20033;-80
2021/04/05 06:54:59;;;;;;;8.25;1.50;;;;;;;3.65;100.00;100072.22;5027731;28;20049;-79
2021/04/05 06:57:49;;;;;;;4.60;1.60;;;;;;;3.66;100.00;100063.28;5030464;28;20506;-79
2021/04/05 07:00:38;;;;;;;6.20;1.42;;;;;;;3.64;100.00;100065.22;5006268;28;20514;-82
2021/04/05 07:03:33;;;;;;;6.15;1.50;;;;;;;3.65;100.00;100069.56;5027657;28;20072;-84
2021/04/05 07:06:28;;;;;;;4.93;1.67;;;;;;;3.63;100.00;100074.19;5019524;28;20038;-80
2021/04/05 07:09:13;;;;;;;4.47;1.30;;;;;;;3.71;100.00;100068.16;5028590;28;20042;-84
2021/04/05 07:14:27;;;;;;;7.00;1.38;;;;;;;3.69;100.00;100073.63;5015385;28;20528;-88
2021/04/05 07:17:27;;;;;;;7.38;1.67;;;;;;;3.76;100.00;100098.63;5014186;28;20041;-80
2021/04/05 07:20:14;;;;;;;4.80;1.42;;;;;;;3.74;100.00;100087.34;4969499;28;20061;-79
2021/04/05 07:22:59;;;;;;;4.43;1.50;;;;;;;3.72;100.00;100099.88;4962332;28;20049;-79
2021/04/05 07:25:35;;;;;;;7.03;1.90;;;;;;;3.77;100.00;100105.63;5011882;28;20436;-83
2021/04/05 07:28:21;;;;;;;3.95;1.50;;;;;;;3.64;100.00;100105.03;5020307;28;20037;-81
2021/04/05 07:30:58;;;;;;;6.00;1.10;;;;;;;3.56;100.00;100112.84;4988540;28;20117;-82
2021/04/05 07:33:37;;;;;;;3.25;0.80;;;;;;;3.51;100.00;100146.88;5012702;28;20044;-79
2021/04/05 07:36:15;;;;;;;2.97;1.00;;;;;;;3.45;100.00;100137.63;5012036;28;20509;-80
2021/04/05 07:39:17;;;;;;;4.53;1.10;;;;;;;3.44;100.00;100143.09;4995374;28;20056;-79
2021/04/05 07:42:11;;;;;;;3.97;1.08;;;;;;;3.42;100.00;100145.88;4991142;28;20125;-76
2021/04/05 07:44:57;;;;;;;4.20;1.30;;;;;;;3.44;100.00;100143.09;4990386;28;20080;-84
2021/04/05 07:47:28;;;;;;;5.72;1.30;;;;;;;3.42;100.00;100137.06;5014981;28;20069;-78
2021/04/05 07:50:23;;;;;;;2.63;1.00;;;;;;;3.39;100.00;100160.25;5014058;28;20552;-77
2021/04/05 07:52:59;;;;;;;9.73;2.13;;;;;;;3.37;100.00;100164.84;4996089;28;20470;-83
2021/04/05 07:55:26;;;;;;;11.73;1.88;;;;;;;3.22;100.00;100186.53;4991634;28;20080;-86
2021/04/05 07:57:59;;;;;;;9.43;1.70;;;;;;;3.05;100.00;100190.63;5015726;28;20481;-86
2021/04/05 08:00:33;;;;;;;9.88;2.30;;;;;;;3.01;100.00;100197.19;4993145;28;20054;-79
2021/04/05 08:03:17;;;;;;;7.00;1.80;;;;;;;2.99;99.88;100194.63;4992086;28;20156;-82
2021/04/05 08:05:50;;;;;;;7.75;1.80;;;;;;;2.93;98.85;100209.28;4994156;28;20060;-84
2021/04/05 08:08:46;;;;;;;11.95;2.20;;;;;;;2.91;99.77;100211.22;5006767;28;20054;-87
2021/04/05 08:11:18;;;;;;;11.80;3.30;;;;;;;2.97;99.73;100215.16;4990204;28;20045;-84
2021/04/05 08:14:22;;;;;;;14.98;2.30;;;;;;;3.00;99.25;100209.59;5005511;28;20421;-84
2021/04/05 08:16:47;;;;;;;14.82;2.60;;;;;;;2.99;98.23;100212.34;4960711;28;20046;-80
2021/04/05 08:19:25;;;;;;;14.13;2.42;;;;;;;3.06;97.71;100193.16;4990979;28;20177;-83
2021/04/05 08:22:22;;;;;;;12.65;2.47;;;;;;;3.17;97.26;100194.91;5011918;28;20054;-80
2021/04/05 08:25:23;;;;;;;15.20;2.67;;;;;;;3.19;96.32;100200.06;4930802;28;20659;-81
2021/04/05 08:28:04;;;;;;;12.95;3.03;;;;;;;3.17;95.34;100216.13;4990938;28;20197;-80
2021/04/05 08:30:45;;;;;;;11.13;2.15;;;;;;;3.23;95.01;100212.94;5003208;28;20053;-84
2021/04/05 08:33:26;;;;;;;14.25;2.58;;;;;;;3.25;94.40;100211.00;4992536;28;20054;-84
2021/04/05 08:36:05;;;;;;;14.32;2.60;;;;;;;3.46;96.25;100207.47;5008586;28;20046;-80
2021/04/05 08:38:45;;;;;;;10.95;2.85;;;;;;;3.56;94.92;100232.22;4971650;28;20045;-79
2021/04/05 08:41:34;;;;;;;13.52;2.38;;;;;;;3.61;92.97;100224.72;5016441;28;20390;-83
2021/04/05 08:44:24;;;;;;;12.60;3.10;;;;;;;3.65;92.80;100228.75;5010677;28;20074;-82
2021/04/05 08:46:57;;;;;;;12.57;2.70;;;;;;;3.74;93.37;100253.66;5019591;28;20044;-80
2021/04/05 08:49:25;;;;;;;10.82;2.00;;;;;;;3.63;91.32;100244.00;5017138;28;20156;-83
2021/04/05 08:51:54;;;;;;;16.55;3.03;;;;;;;3.61;92.82;100246.78;4979450;28;20046;-79
2021/04/05 08:54:23;;;;;;;15.55;3.08;;;;;;;3.63;92.22;100273.19;4990551;28;20077;-78
2021/04/05 08:57:02;;;;;;;8.27;1.80;;;;;;;3.57;89.54;100255.16;5010705;28;20056;-82
2021/04/05 08:59:27;;;;;;;;;;;;;;;3.57;88.12;100233.91;5002823;28;20057;-80
2021/04/05 09:02:17;;;;;;;11.43;2.28;;;;;;;3.56;89.59;100245.47;5000733;28;19922;-80
2021/04/05 09:04:44;;;;;;;10.65;3.33;;;;;;;3.51;85.52;100253.00;4987229;28;20054;-82
2021/04/05 09:07:34;;;;;;;9.10;2.70;;;;;;;3.45;82.95;100233.13;4989850;28;20497;-81
2021/04/05 09:10:07;;;;;;;11.40;3.15;;;;;;;3.50;84.66;100252.16;5009663;28;20052;-81
2021/04/05 09:12:34;;;;;;;8.35;2.10;;;;;;;3.50;83.56;100219.50;4987606;28;20060;-81
2021/04/05 09:15:27;;;;;;;9.07;1.75;;;;;;;3.39;84.87;100263.72;4989492;28;20401;-80
2021/04/05 09:18:25;;;;;;;11.43;2.42;;;;;;;3.27;85.45;100285.94;5008790;28;20033;-80
2021/04/05 09:21:10;;;;;;;12.60;2.20;;;;;;;3.08;88.90;100285.81;4983744;28;20061;-83
2021/04/05 09:24:04;;;;;;;11.68;2.17;;;;;;;2.91;91.43;100287.25;4992515;28;20052;-82
2021/04/05 09:26:46;;;;;;;8.00;2.20;;;;;;;2.89;93.05;100286.50;4975510;28;20081;-81
2021/04/05 09:29:50;;;;;;;9.93;2.13;;;;;;;2.94;94.66;100297.59;5008106;28;20053;-80
2021/04/05 09:32:44;;;;;;;18.45;2.95;;;;;;;2.96;96.13;100295.63;4975008;28;20042;-83
2021/04/05 09:35:28;;;;;;;8.93;2.30;;;;;;;2.94;95.66;100332.88;5007488;28;20045;-85
2021/04/05 09:38:07;;;;;;;3.70;1.20;;;;;;;2.87;93.64;100331.69;4986885;28;20053;-81
2021/04/05 09:40:57;;;;;;;5.20;1.25;;;;;;;2.69;90.34;100341.16;4994840;28;20053;-86
2021/04/05 09:44:06;;;;;;;10.15;3.80;;;;;;;2.61;89.97;100335.63;5007358;28;20041;-77
2021/04/05 09:46:58;;;;;;;3.45;0.98;;;;;;;2.57;90.06;100356.22;4990104;28;20568;-81
2021/04/05 09:49:51;;;;;;;2.60;0.75;;;;;;;2.68;90.39;100363.31;4992381;28;20520;-80
2021/04/05 09:52:41;;;;;;;2.55;1.30;;;;;;;2.84;88.89;100361.09;5013008;28;20042;-83
2021/04/05 09:55:11;;;;;;;4.88;2.25;;;;;;;3.02;87.79;100360.53;4979721;28;20046;-84
2021/04/05 09:58:04;;;;;;;2.83;0.60;;;;;;;3.11;84.86;100359.81;4999224;28;20038;-78
2021/04/05 10:00:31;;;;;;;3.47;0.70;;;;;;;3.13;82.08;100365.81;4960828;28;20251;-82
2021/04/05 10:03:17;;;;;;;5.55;1.52;;;;;;;3.10;80.09;100360.75;5005780;28;20038;-80
2021/04/05 10:05:45;;;;;;;1.65;0.98;;;;;;;3.16;81.79;100369.06;4986029;28;20038;-81
2021/04/05 10:08:24;;;;;;;2.22;0.70;;;;;;;3.17;78.74;100369.91;5008541;28;20046;-77
2021/04/05 10:10:51;;;;;;;4.80;0.80;;;;;;;3.27;80.17;100385.88;4976540;28;20729;-80
2021/04/05 10:13:23;;;;;;;5.57;1.95;;;;;;;3.32;79.30;100379.22;5013955;28;20128;-82
2021/04/05 10:15:52;;;;;;;4.60;1.08;;;;;;;3.28;77.21;100351.31;5013762;28;20088;-84
2021/04/05 10:18:18;;;;;;;3.95;1.10;;;;;;;3.31;78.22;100380.22;4987970;28;20053;-82
2021/04/05 10:20:52;;;;;;;5.78;1.42;;;;;;;3.33;77.01;100380.06;5005058;28;20087;-84
2021/04/05 10:23:23;;;;;;;5.03;1.35;;;;;;;3.33;77.63;100380.91;5007059;28;20058;-81
2021/04/05 10:25:58;;;;;;;5.70;1.73;;;;;;;3.32;77.33;100391.66;5007375;28;20076;-80
2021/04/05 10:28:28;;;;;;;9.23;1.95;;;;;;;3.15;77.23;100428.34;5014655;28;20375;-82
2021/04/05 10:30:56;;;;;;;10.10;2.80;;;;;;;2.85;80.00;100429.03;5016549;28;20056;-81
2021/04/05 10:33:28;;;;;;;6.45;1.38;;;;;;;2.66;81.95;100434.13;5011222;28;20046;-79
2021/04/05 10:35:56;;;;;;;8.32;1.90;;;;;;;2.55;81.74;100432.31;4987229;28;20466;-80
2021/04/05 10:38:23;;;;;;;8.95;1.30;;;;;;;2.55;81.51;100444.72;5011648;28;20049;-83
2021/04/05 10:40:51;;;;;;;7.75;2.05;;;;;;;2.48;79.90;100437.28;5012822;28;20045;-80
2021/04/05 10:43:28;;;;;;;12.90;1.90;;;;;;;2.43;78.90;100417.41;5011916;28;20104;-81
2021/04/05 10:46:05;;;;;;;15.52;2.28;;;;;;;2.46;78.71;100412.69;5013725;28;20091;-82
2021/04/05 10:48:41;;;;;;;10.50;2.55;;;;;;;2.46;77.89;100433.06;5011141;28;20042;-82
2021/04/05 10:51:33;;;;;;;7.35;1.88;;;;;;;2.65;77.12;100437.75;4972847;28;20035;-78
2021/04/05 10:54:06;;;;;;;10.07;1.77;;;;;;;2.70;75.91;100441.72;5012402;28;20045;-82
2021/04/05 10:56:45;;;;;;;7.85;1.95;;;;;;;2.70;78.52;100462.06;5016291;28;20037;-83
2021/04/05 10:59:22;;;;;;;9.63;2.58;;;;;;;2.46;80.72;100470.13;5010910;28;20052;-82
2021/04/05 11:01:56;;;;;;;10.02;3.00;;;;;;;2.39;81.07;100450.41;5018837;28;20034;-79
2021/04/05 11:04:23;;;;;;;11.10;2.78;;;;;;;2.37;80.47;100466.41;4999221;28;20370;-81
2021/04/05 11:06:50;;;;;;;7.93;2.30;;;;;;;2.32;74.75;100460.59;4990923;28;20045;-80
2021/04/05 11:09:17;;;;;;;8.27;1.55;;;;;;;2.45;74.53;100461.34;5005512;28;20486;-82
2021/04/05 11:11:44;;;;;;;6.45;1.60;;;;;;;2.70;73.18;100441.72;5003105;28;20057;-77
2021/04/05 11:14:14;;;;;;;8.13;2.28;;;;;;;2.86;69.99;100424.59;4984818;28;20048;-82
2021/04/05 11:16:48;;;;;;;10.75;2.03;;;;;;;2.97;70.13;100434.31;4996553;28;20046;-86
2021/04/05 11:19:22;;;;;;;13.00;2.13;;;;;;;3.14;71.33;100441.75;5014073;28;20101;-81
2021/04/05 11:21:50;;;;;;;9.85;1.83;;;;;;;3.27;70.49;100454.84;5006395;28;20478;-78
2021/04/05 11:24:26;;;;;;;5.13;1.55;;;;;;;3.35;68.74;100399.34;4992158;28;20129;-88
2021/04/05 11:26:57;;;;;;;4.85;1.50;;;;;;;3.47;67.79;100440.78;4996989;28;20370;-84
2021/04/05 11:29:26;;;;;;;8.75;1.50;;;;;;;3.60;64.24;100437.97;4974202;28;20521;-83
2021/04/05 11:31:53;;;;;;;9.25;2.03;;;;;;;3.57;65.28;100432.91;4995851;28;20144;-81
2021/04/05 11:34:34;;;;;;;7.78;1.70;;;;;;;3.75;66.47;100431.34;5013809;28;20037;-84
2021/04/05 11:37:05;;;;;;;6.00;1.50;;;;;;;3.83;65.99;100439.53;4995019;28;20672;-79
2021/04/05 11:39:33;;;;;;;7.40;1.38;;;;;;;3.90;65.05;100444.31;5016428;28;20145;-83
2021/04/05 11:42:03;;;;;;;7.20;1.48;;;;;;;3.86;64.40;100451.69;5018010;28;20037;-84
2021/04/05 11:44:41;;;;;;;8.98;1.70;;;;;;;4.03;65.54;100432.53;5013880;28;20042;-77
2021/04/05 11:47:08;;;;;;;5.75;1.52;;;;;;;4.04;63.10;100443.97;5017793;28;20037;-84
2021/04/05 11:49:34;;;;;;;5.55;1.30;;;;;;;4.01;60.64;100441.59;4979861;28;20469;-87
2021/04/05 11:52:19;;;;;;;5.60;1.65;;;;;;;4.04;60.22;100425.41;5021221;28;20144;-85
2021/04/05 11:54:57;;;;;;;6.93;1.42;;;;;;;4.22;63.39;100450.38;5010409;28;20092;-83
2021/04/05 11:57:27;;;;;;;5.20;1.10;;;;;;;4.29;60.34;100448.88;5015756;28;20050;-81
2021/04/05 12:00:00;;;;;;;6.20;1.08;;;;;;;4.20;58.78;100449.69;4974046;28;20045;-78